Time;durP1;ratioP1;P1;durP2;ratioP2;P2;SDS_P1;SDS_P2;PMS_P1;PMS_P2;Temp;Humidity;BMP_temperature;BMP_pressure;BME280_temperature;BME280_humidity;BME280_pressure;Samples;Min_cycle;Max_cycle;Signal;HPM_P1;HPM_P2
2023/04/13 00:01:32;;;;;;;0.30;0.30;;;11.40;47.90;;;;;;20613;6786;121731;-79
2023/04/13 00:04:12;;;;;;;0.32;0.32;;;10.90;48.40;;;;;;20473;6786;307012;-80
2023/04/13 00:06:45;;;;;;;0.27;0.27;;;10.90;48.40;;;;;;20668;6818;117885;-75
2023/04/13 00:09:20;;;;;;;0.40;0.37;;;10.80;49.00;;;;;;20491;6790;277556;-77
2023/04/13 00:11:57;;;;;;;0.50;0.50;;;10.90;48.90;;;;;;20379;6790;280969;-80
2023/04/13 00:14:34;;;;;;;0.70;0.20;;;11.10;48.20;;;;;;20693;6803;119752;-77
2023/04/13 00:17:09;;;;;;;0.47;0.47;;;10.90;48.60;;;;;;20656;6790;119623;-79
2023/04/13 00:19:49;;;;;;;0.40;0.40;;;10.60;49.40;;;;;;20462;6790;309847;-79
2023/04/13 00:22:22;;;;;;;0.50;0.50;;;10.60;49.20;;;;;;20567;6790;117580;-81
2023/04/13 00:24:58;;;;;;;0.40;0.30;;;10.60;49.20;;;;;;20643;6807;117478;-77
2023/04/13 00:27:34;;;;;;;0.60;0.40;;;10.40;49.90;;;;;;20626;6807;120340;-79
2023/04/13 00:30:12;;;;;;;0.30;0.30;;;10.20;50.40;;;;;;20653;6810;117544;-78
2023/04/13 00:32:45;;;;;;;0.37;0.33;;;10.00;50.70;;;;;;20602;6786;117557;-77
2023/04/13 00:35:23;;;;;;;0.50;0.40;;;9.80;52.20;;;;;;20693;6791;117771;-75
2023/04/13 00:37:59;;;;;;;1.17;0.50;;;9.80;52.20;;;;;;20722;6790;117422;-81
2023/04/13 00:40:36;;;;;;;2.20;0.37;;;9.70;52.30;;;;;;20711;6790;119259;-76
2023/04/13 00:43:09;;;;;;;0.90;0.80;;;9.60;52.50;;;;;;20528;6790;119980;-76
2023/04/13 00:45:46;;;;;;;0.45;0.40;;;9.50;52.70;;;;;;20502;6790;336943;-78
2023/04/13 00:48:22;;;;;;;0.70;0.50;;;9.90;51.60;;;;;;20712;6790;118026;-77
2023/04/13 00:50:57;;;;;;;0.30;0.30;;;9.90;51.50;;;;;;20750;6776;117881;-78
2023/04/13 00:53:33;;;;;;;0.43;0.30;;;9.80;51.90;;;;;;20721;6790;123786;-77
2023/04/13 00:56:08;;;;;;;0.60;0.30;;;9.70;52.20;;;;;;20714;6790;118088;-78
2023/04/13 00:58:44;;;;;;;0.50;0.40;;;9.60;52.50;;;;;;20522;6776;310783;-76
2023/04/13 01:01:19;;;;;;;0.68;0.47;;;9.90;51.30;;;;;;20474;6776;339670;-80
2023/04/13 01:03:57;;;;;;;0.73;0.60;;;10.30;49.10;;;;;;20758;6771;118053;-78
2023/04/13 01:06:32;;;;;;;0.80;0.40;;;10.30;49.30;;;;;;20517;6771;336489;-77
2023/04/13 01:09:10;;;;;;;0.50;0.23;;;10.50;48.90;;;;;;20743;6771;118735;-78
2023/04/13 01:11:52;;;;;;;0.40;0.40;;;10.40;49.30;;;;;;20462;6776;279050;-78
2023/04/13 01:14:29;;;;;;;0.70;0.40;;;10.50;48.70;;;;;;20259;6872;306413;-80
2023/04/13 01:17:04;;;;;;;0.67;0.60;;;10.60;48.50;;;;;;20739;6771;121819;-80
2023/04/13 01:19:48;;;;;;;1.30;0.50;;;10.60;48.50;;;;;;20482;6786;281575;-78
2023/04/13 01:22:26;;;;;;;0.73;0.40;;;10.60;47.70;;;;;;20395;6786;309856;-76
2023/04/13 01:25:07;;;;;;;0.60;0.50;;;10.90;47.10;;;;;;20438;6801;311724;-81
2023/04/13 01:27:50;;;;;;;0.53;0.50;;;11.10;46.20;;;;;;20676;6799;118557;-79
2023/04/13 01:30:27;;;;;;;0.67;0.50;;;10.40;48.30;;;;;;20674;6799;120356;-77
2023/04/13 01:33:04;;;;;;;1.13;0.50;;;10.40;48.30;;;;;;20553;6786;118127;-78
2023/04/13 01:35:39;;;;;;;0.30;0.30;;;10.10;49.10;;;;;;20641;6801;117117;-79
2023/04/13 01:38:14;;;;;;;0.90;0.50;;;9.90;50.70;;;;;;20478;6792;341616;-76
2023/04/13 01:40:54;;;;;;;1.25;0.57;;;10.10;49.10;;;;;;20509;6786;303697;-78
2023/04/13 01:43:27;;;;;;;0.37;0.37;;;10.50;48.80;;;;;;20502;6848;119470;-77
2023/04/13 01:46:03;;;;;;;1.08;0.50;;;10.40;48.40;;;;;;20439;6807;309102;-76
2023/04/13 01:48:42;;;;;;;1.00;0.50;;;10.50;48.10;;;;;;20476;6792;306408;-77
2023/04/13 01:51:19;;;;;;;0.40;0.40;;;10.70;47.10;;;;;;20657;6792;129266;-79
2023/04/13 01:53:55;;;;;;;1.45;0.80;;;10.50;47.60;;;;;;20523;6762;291404;-76
2023/04/13 01:56:31;;;;;;;0.50;0.50;;;10.50;47.40;;;;;;20745;6773;117400;-77
2023/04/13 01:59:07;;;;;;;0.50;0.50;;;10.40;47.80;;;;;;20542;6774;306562;-78
2023/04/13 02:01:43;;;;;;;0.70;0.40;;;10.30;47.50;;;;;;20474;6777;309011;-76
2023/04/13 02:04:23;;;;;;;0.97;0.60;;;10.60;47.20;;;;;;20591;6759;306343;-81
2023/04/13 02:06:55;;;;;;;0.40;0.40;;;10.80;46.80;;;;;;20748;6774;117687;-76
2023/04/13 02:09:33;;;;;;;0.53;0.53;;;10.50;47.20;;;;;;20730;6774;117138;-78
2023/04/13 02:12:10;;;;;;;0.83;0.57;;;10.10;48.10;;;;;;20449;6774;332437;-76
2023/04/13 02:14:45;;;;;;;0.83;0.60;;;10.20;48.30;;;;;;20655;6801;118269;-78
2023/04/13 02:17:24;;;;;;;0.93;0.60;;;10.10;48.00;;;;;;20449;6801;308144;-76
2023/04/13 02:19:58;;;;;;;1.37;0.50;;;10.20;47.60;;;;;;20711;6801;117790;-79
2023/04/13 02:22:33;;;;;;;1.40;0.50;;;10.10;47.90;;;;;;20602;6795;117587;-78
2023/04/13 02:25:12;;;;;;;0.77;0.50;;;9.80;49.40;;;;;;20658;6810;118152;-77
2023/04/13 02:27:44;;;;;;;0.70;0.68;;;9.60;50.00;;;;;;20445;6807;309779;-76
2023/04/13 02:30:20;;;;;;;0.40;0.40;;;9.70;49.10;;;;;;20432;6809;308495;-77
2023/04/13 02:32:59;;;;;;;0.70;0.60;;;10.10;47.30;;;;;;20289;6808;279711;-79
2023/04/13 02:35:31;;;;;;;0.50;0.50;;;10.40;46.50;;;;;;20410;6809;282863;-79
2023/04/13 02:38:09;;;;;;;1.25;0.60;;;10.60;46.20;;;;;;20480;6808;336079;-77
2023/04/13 02:40:42;;;;;;;0.43;0.40;;;10.80;45.80;;;;;;20696;6808;117813;-80
2023/04/13 02:43:18;;;;;;;0.40;0.40;;;10.60;46.40;;;;;;20419;6809;117827;-80
2023/04/13 02:45:53;;;;;;;0.62;0.60;;;10.20;47.30;;;;;;20439;6809;306746;-76
2023/04/13 02:48:29;;;;;;;0.93;0.50;;;10.30;46.90;;;;;;20422;6813;308025;-75
2023/04/13 02:51:05;;;;;;;0.47;0.47;;;10.60;46.40;;;;;;20631;6809;120396;-79
2023/04/13 02:53:41;;;;;;;1.00;0.60;;;10.50;46.90;;;;;;20627;6809;117821;-80
2023/04/13 02:56:20;;;;;;;1.20;0.60;;;10.20;47.50;;;;;;20433;6809;307583;-78
2023/04/13 02:58:53;;;;;;;1.17;0.50;;;10.30;47.00;;;;;;20634;6809;117307;-79
2023/04/13 03:01:28;;;;;;;0.70;0.50;;;10.20;47.40;;;;;;20382;6809;281529;-76
2023/04/13 03:04:04;;;;;;;0.90;0.50;;;10.30;46.80;;;;;;20439;6809;307941;-76
2023/04/13 03:06:43;;;;;;;0.60;0.50;;;10.60;46.30;;;;;;20469;6809;308048;-80
2023/04/13 03:09:16;;;;;;;0.70;0.50;;;10.80;45.80;;;;;;20670;6809;146402;-77
2023/04/13 03:11:50;;;;;;;2.50;0.77;;;10.60;46.40;;;;;;20629;6809;117679;-78
2023/04/13 03:14:28;;;;;;;0.80;0.50;;;10.30;47.30;;;;;;20456;6809;337027;-76
2023/04/13 03:17:02;;;;;;;1.13;0.60;;;10.40;47.10;;;;;;20628;6809;118824;-79
2023/04/13 03:19:37;;;;;;;1.10;0.60;;;10.30;46.90;;;;;;20472;6794;278824;-80
2023/04/13 03:22:13;;;;;;;1.55;0.90;;;10.40;46.10;;;;;;20367;6794;314512;-79
2023/04/13 03:24:48;;;;;;;0.83;0.50;;;10.70;45.20;;;;;;20643;6809;117634;-80
2023/04/13 03:27:24;;;;;;;1.47;0.63;;;10.50;45.30;;;;;;20630;6809;119909;-81
2023/04/13 03:30:09;;;;;;;1.50;0.80;;;10.10;45.30;;;;;;20483;6809;310296;-78
2023/04/13 03:32:35;;;;;;;2.78;1.08;;;10.20;43.80;;;;;;20357;6809;309787;-79
2023/04/13 03:35:12;;;;;;;0.50;0.50;;;10.50;43.40;;;;;;20628;6804;117409;-83
2023/04/13 03:37:56;;;;;;;1.00;0.70;;;10.40;44.10;;;;;;20474;6794;332679;-77
2023/04/13 03:40:23;;;;;;;0.60;0.60;;;10.50;43.40;;;;;;20705;6794;116968;-80
2023/04/13 03:42:59;;;;;;;2.93;0.70;;;10.40;44.10;;;;;;20544;6804;117602;-77
2023/04/13 03:45:34;;;;;;;2.40;0.80;;;10.10;44.60;;;;;;20411;6860;335031;-77
2023/04/13 03:48:11;;;;;;;1.07;0.80;;;10.20;43.60;;;;;;20664;6804;117306;-77
2023/04/13 03:50:48;;;;;;;0.50;0.50;;;10.20;44.30;;;;;;20669;6810;117780;-77
2023/04/13 03:53:25;;;;;;;1.37;0.73;;;10.00;44.90;;;;;;20447;6871;117667;-78
2023/04/13 03:56:01;;;;;;;1.23;1.00;;;9.80;46.40;;;;;;20677;6800;117825;-75
2023/04/13 03:58:37;;;;;;;0.97;0.60;;;9.70;46.80;;;;;;20685;6795;119638;-75
2023/04/13 04:01:12;;;;;;;1.67;0.67;;;9.50;47.10;;;;;;20650;6795;118712;-76
2023/04/13 04:03:49;;;;;;;1.97;0.70;;;9.40;47.50;;;;;;20714;6790;117197;-75
2023/04/13 04:06:26;;;;;;;0.90;0.70;;;9.40;47.90;;;;;;20482;6796;290835;-76
2023/04/13 04:09:00;;;;;;;2.70;0.95;;;9.70;46.50;;;;;;20472;6796;308001;-77
2023/04/13 04:11:37;;;;;;;2.30;0.60;;;10.70;43.40;;;;;;20415;6796;313260;-76
2023/04/13 04:14:13;;;;;;;1.97;0.80;;;10.70;43.30;;;;;;20463;6796;308210;-76
2023/04/13 04:16:48;;;;;;;1.62;0.90;;;11.10;42.90;;;;;;20467;6796;337487;-76
2023/04/13 04:19:24;;;;;;;1.10;0.85;;;11.30;41.80;;;;;;20409;6811;312655;-76
2023/04/13 04:22:05;;;;;;;2.30;0.70;;;11.50;40.70;;;;;;20511;6829;117923;-77
2023/04/13 04:24:41;;;;;;;2.12;0.80;;;11.30;42.00;;;;;;20465;6804;322329;-77
2023/04/13 04:27:14;;;;;;;2.07;0.90;;;11.40;41.40;;;;;;20662;6799;118457;-77
2023/04/13 04:29:50;;;;;;;1.50;0.87;;;11.10;42.30;;;;;;20765;6782;117909;-76
2023/04/13 04:32:25;;;;;;;1.50;0.70;;;10.90;43.30;;;;;;20661;6782;117504;-76
2023/04/13 04:35:03;;;;;;;1.53;0.83;;;10.60;43.90;;;;;;20626;6814;117802;-77
2023/04/13 04:37:37;;;;;;;2.60;1.00;;;10.50;44.30;;;;;;20412;6810;308928;-78
2023/04/13 04:40:12;;;;;;;1.60;1.00;;;10.70;42.80;;;;;;20425;6810;309066;-76
2023/04/13 04:42:48;;;;;;;2.13;0.90;;;11.40;41.30;;;;;;20309;6800;314441;-75
2023/04/13 04:45:26;;;;;;;1.23;0.70;;;11.30;41.20;;;;;;20642;6800;118366;-77
2023/04/13 04:48:02;;;;;;;2.30;1.00;;;11.20;42.00;;;;;;20672;6800;121108;-80
2023/04/13 04:50:36;;;;;;;1.50;1.00;;;11.00;41.40;;;;;;20458;6800;328942;-78
2023/04/13 04:53:12;;;;;;;2.70;1.13;;;11.00;41.40;;;;;;20265;6800;285344;-77
2023/04/13 04:55:47;;;;;;;1.87;0.90;;;11.30;40.80;;;;;;20653;6803;117986;-77
2023/04/13 04:58:24;;;;;;;1.53;0.90;;;11.10;41.50;;;;;;20659;6807;117289;-78
2023/04/13 05:00:59;;;;;;;1.70;0.90;;;10.70;42.20;;;;;;20652;6800;117912;-73
2023/04/13 05:03:36;;;;;;;2.57;0.80;;;10.40;43.10;;;;;;20624;6803;122154;-74
2023/04/13 05:06:14;;;;;;;1.60;1.10;;;10.20;43.70;;;;;;20444;6804;308221;-76
2023/04/13 05:08:50;;;;;;;0.90;0.83;;;10.40;43.00;;;;;;20682;6815;122325;-75
2023/04/13 05:11:24;;;;;;;2.20;1.20;;;10.40;43.00;;;;;;20376;6815;339287;-74
2023/04/13 05:14:00;;;;;;;3.15;0.90;;;10.60;41.50;;;;;;20385;6819;279141;-75
2023/04/13 05:16:35;;;;;;;2.53;0.93;;;10.90;40.90;;;;;;20601;6819;117844;-77
2023/04/13 05:19:16;;;;;;;2.30;0.93;;;10.80;41.70;;;;;;20670;6800;117618;-74
2023/04/13 05:21:46;;;;;;;2.73;0.73;;;10.60;42.70;;;;;;20621;6800;118315;-75
2023/04/13 05:24:22;;;;;;;2.05;1.00;;;10.30;43.30;;;;;;20441;6810;278825;-76
2023/04/13 05:27:00;;;;;;;2.10;1.10;;;10.50;42.20;;;;;;20459;6800;278933;-78
2023/04/13 05:29:34;;;;;;;2.23;1.00;;;10.90;40.90;;;;;;20642;6800;121625;-78
2023/04/13 05:32:09;;;;;;;1.77;0.70;;;10.90;41.90;;;;;;20537;6815;117931;-75
2023/04/13 05:34:44;;;;;;;1.10;0.70;;;10.70;42.70;;;;;;20705;6804;118202;-76
2023/04/13 05:37:20;;;;;;;2.20;0.83;;;10.50;43.40;;;;;;20623;6815;121195;-76
2023/04/13 05:39:57;;;;;;;2.37;1.02;;;10.70;42.40;;;;;;20402;6820;338048;-76
2023/04/13 05:42:32;;;;;;;2.60;1.00;;;10.60;42.30;;;;;;20283;6820;285020;-75
2023/04/13 05:45:09;;;;;;;2.73;0.87;;;11.10;41.40;;;;;;20581;6820;117956;-75
2023/04/13 05:47:44;;;;;;;2.33;1.10;;;11.10;42.10;;;;;;20627;6810;119206;-74
2023/04/13 05:50:20;;;;;;;2.03;1.07;;;10.90;42.70;;;;;;20631;6809;119039;-74
2023/04/13 05:52:59;;;;;;;4.20;1.13;;;10.60;43.20;;;;;;20552;6799;122853;-73
2023/04/13 05:55:35;;;;;;;2.33;0.70;;;10.40;43.80;;;;;;20720;6773;119442;-78
2023/04/13 05:58:11;;;;;;;1.77;0.83;;;10.30;44.40;;;;;;20707;6788;117336;-75
2023/04/13 06:00:49;;;;;;;1.90;1.17;;;10.30;43.00;;;;;;20491;6798;283366;-76
2023/04/13 06:03:27;;;;;;;3.30;1.10;;;10.30;43.00;;;;;;20590;6769;117129;-76
2023/04/13 06:06:00;;;;;;;2.20;0.90;;;10.40;43.50;;;;;;20671;6788;117185;-77
2023/04/13 06:08:43;;;;;;;3.10;1.50;;;10.20;44.10;;;;;;20626;6800;117664;-75
2023/04/13 06:11:13;;;;;;;3.00;1.30;;;10.10;44.70;;;;;;20346;6814;279959;-76
2023/04/13 06:13:48;;;;;;;3.87;1.43;;;10.30;43.50;;;;;;20427;6815;309740;-76
2023/04/13 06:16:24;;;;;;;1.73;1.10;;;10.70;42.50;;;;;;20702;6784;123716;-76
2023/04/13 06:19:00;;;;;;;1.87;1.12;;;10.60;43.00;;;;;;20423;6800;347146;-76
2023/04/13 06:21:36;;;;;;;4.27;1.63;;;11.00;41.60;;;;;;20451;6784;281267;-76
2023/04/13 06:24:11;;;;;;;3.63;1.73;;;11.00;41.50;;;;;;20496;6803;278850;-76
2023/04/13 06:26:51;;;;;;;3.33;1.33;;;11.20;41.00;;;;;;20443;6819;337161;-76
2023/04/13 06:29:22;;;;;;;3.67;1.03;;;11.40;41.00;;;;;;20662;6807;117857;-75
2023/04/13 06:31:58;;;;;;;2.87;1.00;;;11.20;42.00;;;;;;20569;6831;117652;-74
2023/04/13 06:34:34;;;;;;;4.70;0.80;;;10.90;43.00;;;;;;20599;6834;117182;-77
2023/04/13 06:37:09;;;;;;;2.87;1.30;;;10.60;43.70;;;;;;20375;6823;308971;-75
2023/04/13 06:39:45;;;;;;;3.17;1.43;;;10.80;43.00;;;;;;20419;6815;281648;-75
2023/04/13 06:42:20;;;;;;;2.37;1.20;;;11.20;42.50;;;;;;20556;6819;116686;-75
2023/04/13 06:44:56;;;;;;;1.77;1.20;;;11.30;43.20;;;;;;20486;6790;341841;-75
2023/04/13 06:47:32;;;;;;;6.90;6.40;;;11.50;42.10;;;;;;20632;6804;118888;-75
2023/04/13 06:50:07;;;;;;;2.45;1.90;;;11.40;42.50;;;;;;20411;6820;310062;-82
2023/04/13 06:52:43;;;;;;;2.80;2.47;;;11.60;41.00;;;;;;20506;6819;118172;-75
2023/04/13 06:55:18;;;;;;;2.60;2.40;;;11.50;42.00;;;;;;20431;6804;307540;-74
2023/04/13 06:57:54;;;;;;;4.30;2.73;;;11.70;41.10;;;;;;20607;6815;117816;-74
2023/04/13 07:00:30;;;;;;;5.93;3.05;;;11.60;42.00;;;;;;20434;6815;312059;-74
2023/04/13 07:03:05;;;;;;;3.40;1.73;;;11.80;40.30;;;;;;20326;6815;279901;-73
2023/04/13 07:05:44;;;;;;;4.33;2.30;;;12.00;39.20;;;;;;20467;6789;307971;-76
2023/04/13 07:08:18;;;;;;;5.18;4.78;;;12.20;39.00;;;;;;20483;6789;308722;-75
2023/04/13 07:10:53;;;;;;;5.93;5.53;;;12.30;38.30;;;;;;20680;6805;118133;-80
2023/04/13 07:13:29;;;;;;;7.40;6.80;;;12.10;39.60;;;;;;20614;6819;117852;-75
2023/04/13 07:16:07;;;;;;;5.07;4.30;;;11.70;40.80;;;;;;20644;6809;118481;-76
2023/04/13 07:18:51;;;;;;;3.43;2.47;;;11.40;41.90;;;;;;20662;6808;117691;-76
2023/04/13 07:21:27;;;;;;;4.17;2.23;;;11.40;41.50;;;;;;20417;6803;312816;-78
2023/04/13 07:23:54;;;;;;;7.28;6.57;;;11.80;41.20;;;;;;20459;6805;306557;-78
2023/04/13 07:26:30;;;;;;;2.00;1.50;;;11.80;40.80;;;;;;20616;6825;118372;-74
2023/04/13 07:29:12;;;;;;;3.33;1.60;;;11.80;41.60;;;;;;20397;6840;307966;-76
2023/04/13 07:31:42;;;;;;;5.33;3.77;;;12.10;39.50;;;;;;20401;6801;281238;-78
2023/04/13 07:34:20;;;;;;;8.20;6.20;;;12.10;39.50;;;;;;20496;6795;312371;-73
2023/04/13 07:36:55;;;;;;;4.53;2.20;;;12.30;39.70;;;;;;20684;6792;117339;-76
2023/04/13 07:39:32;;;;;;;4.77;3.80;;;12.10;40.20;;;;;;20544;6822;117592;-77
2023/04/13 07:42:07;;;;;;;6.20;4.47;;;11.80;41.50;;;;;;20373;6805;333919;-72
2023/04/13 07:44:43;;;;;;;8.75;5.70;;;12.10;40.10;;;;;;20396;6821;338855;-72
2023/04/13 07:47:19;;;;;;;13.77;9.13;;;12.10;40.10;;;;;;20685;6792;120282;-75
2023/04/13 07:49:55;;;;;;;6.03;2.20;;;11.90;40.90;;;;;;20664;6814;117900;-73
2023/04/13 07:52:31;;;;;;;9.15;5.28;;;11.60;41.80;;;;;;20231;6845;282440;-73
2023/04/13 07:55:06;;;;;;;8.38;3.05;;;11.70;40.60;;;;;;20388;6830;284776;-72
2023/04/13 07:57:42;;;;;;;2.90;1.60;;;12.00;41.60;;;;;;20628;6830;117572;-73
2023/04/13 08:00:19;;;;;;;2.40;1.37;;;12.00;42.40;;;;;;20670;6815;117556;-73
2023/04/13 08:02:57;;;;;;;2.50;1.50;;;11.70;42.40;;;;;;20564;6795;117624;-72
2023/04/13 08:05:30;;;;;;;4.00;2.10;;;11.60;42.90;;;;;;20398;6797;311732;-72
2023/04/13 08:08:06;;;;;;;2.87;1.10;;;11.70;41.30;;;;;;20616;6821;117487;-72
2023/04/13 08:10:41;;;;;;;3.08;1.55;;;11.70;42.00;;;;;;20398;6818;284553;-74
2023/04/13 08:13:17;;;;;;;2.33;1.40;;;11.90;40.80;;;;;;20378;6821;118811;-72
2023/04/13 08:15:55;;;;;;;2.47;1.10;;;11.90;41.80;;;;;;20688;6793;117442;-73
2023/04/13 08:18:30;;;;;;;6.50;1.30;;;11.80;42.40;;;;;;20598;6822;121270;-72
2023/04/13 08:21:09;;;;;;;2.93;1.20;;;11.70;42.80;;;;;;20623;6815;118657;-72
2023/04/13 08:23:43;;;;;;;3.50;1.30;;;11.60;43.30;;;;;;20684;6797;117989;-73
2023/04/13 08:26:19;;;;;;;5.00;1.90;;;11.50;43.70;;;;;;20435;6811;322980;-73
2023/04/13 08:28:55;;;;;;;3.87;1.40;;;11.80;41.20;;;;;;20820;6746;120860;-73
2023/04/13 08:31:31;;;;;;;4.83;1.20;;;11.90;41.90;;;;;;20734;6774;121368;-72
2023/04/13 08:34:09;;;;;;;2.47;1.47;;;11.80;42.50;;;;;;20737;6794;117855;-73
2023/04/13 08:36:41;;;;;;;4.28;1.73;;;11.90;41.00;;;;;;20428;6796;278515;-73
2023/04/13 08:39:17;;;;;;;3.13;1.40;;;11.90;41.00;;;;;;20717;6779;118033;-73
2023/04/13 08:41:52;;;;;;;2.83;1.33;;;12.00;41.80;;;;;;20732;6761;118025;-74
2023/04/13 08:47:40;;;;;;;1.27;1.10;;;11.60;43.70;;;;;;20722;6769;117132;-74
2023/04/13 08:50:19;;;;;;;4.70;1.60;;;11.70;43.60;;;;;;20739;6781;117208;-74
2023/04/13 08:52:53;;;;;;;6.70;2.37;;;11.60;44.00;;;;;;20571;6785;117692;-74
2023/04/13 08:55:29;;;;;;;13.05;9.43;;;11.70;44.30;;;;;;20579;6758;395843;-74
2023/04/13 08:58:04;;;;;;;6.12;3.70;;;12.10;42.20;;;;;;20543;6775;277155;-72
2023/04/13 09:00:43;;;;;;;4.40;3.13;;;12.70;39.80;;;;;;20778;6781;119462;-73
2023/04/13 09:03:19;;;;;;;5.17;3.03;;;12.90;40.90;;;;;;20614;6758;121942;-72
2023/04/13 09:05:58;;;;;;;6.67;5.23;;;12.90;41.80;;;;;;20743;6777;117143;-72
2023/04/13 09:08:36;;;;;;;5.43;3.87;;;12.90;42.40;;;;;;20740;6777;117019;-73
2023/04/13 09:11:08;;;;;;;5.93;3.60;;;12.90;42.50;;;;;;20483;6795;339683;-75
2023/04/13 09:13:47;;;;;;;5.50;3.50;;;13.30;40.30;;;;;;20745;6780;119292;-74
2023/04/13 09:16:22;;;;;;;2.13;1.53;;;13.50;41.00;;;;;;20788;6760;117199;-74
2023/04/13 09:19:01;;;;;;;7.47;4.80;;;13.40;41.70;;;;;;20770;6765;119346;-74
2023/04/13 09:21:40;;;;;;;5.43;2.20;;;13.30;41.40;;;;;;20751;6755;121480;-74
2023/04/13 09:24:15;;;;;;;5.23;2.30;;;13.10;41.60;;;;;;20800;6755;118089;-74
2023/04/13 09:26:51;;;;;;;4.20;2.17;;;13.00;41.80;;;;;;20765;6774;118257;-74
2023/04/13 09:29:27;;;;;;;5.00;2.53;;;12.80;42.00;;;;;;20751;6769;117995;-74
2023/04/13 09:32:08;;;;;;;3.80;2.10;;;12.80;42.60;;;;;;20709;6769;117446;-74
2023/04/13 09:34:38;;;;;;;5.28;2.17;;;13.00;43.20;;;;;;20539;6768;336850;-74
2023/04/13 09:37:13;;;;;;;5.37;2.50;;;13.50;41.90;;;;;;20717;6768;118083;-74
2023/04/13 09:39:49;;;;;;;4.83;2.10;;;14.00;42.30;;;;;;20732;6773;117408;-74
2023/04/13 09:42:25;;;;;;;3.62;1.87;;;14.30;42.30;;;;;;20460;6776;279344;-74
2023/04/13 09:45:02;;;;;;;3.90;1.77;;;14.80;37.70;;;;;;20509;6785;311275;-74
2023/04/13 09:47:37;;;;;;;3.53;1.63;;;15.20;36.30;;;;;;20718;6778;118592;-74
2023/04/13 09:50:20;;;;;;;3.20;1.83;;;15.30;37.40;;;;;;20744;6778;117064;-74
2023/04/13 09:53:04;;;;;;;3.37;1.87;;;15.10;38.30;;;;;;20561;6778;119319;-73
2023/04/13 09:55:40;;;;;;;3.35;2.10;;;14.80;38.70;;;;;;20511;6777;327103;-73
2023/04/13 09:58:16;;;;;;;4.45;2.40;;;14.90;35.90;;;;;;20547;6773;295341;-74
2023/04/13 10:00:52;;;;;;;4.70;2.00;;;15.50;33.80;;;;;;20527;6783;297087;-74
2023/04/13 10:03:27;;;;;;;4.03;2.47;;;15.50;33.70;;;;;;20302;6849;309671;-74
2023/04/13 10:06:07;;;;;;;4.37;2.83;;;15.70;33.70;;;;;;20741;6775;120959;-74
2023/04/13 10:08:45;;;;;;;4.30;2.10;;;15.70;35.10;;;;;;20539;6775;277723;-74
2023/04/13 10:11:19;;;;;;;4.75;2.80;;;15.70;34.40;;;;;;20499;6775;290535;-74
2023/04/13 10:13:55;;;;;;;5.27;3.50;;;15.90;33.90;;;;;;20553;6775;278114;-74
2023/04/13 10:16:52;;;;;;;5.78;3.00;;;16.00;36.20;;;;;;20533;6775;308493;-74
2023/04/13 10:19:29;;;;;;;3.40;1.70;;;15.90;37.10;;;;;;20748;6778;144686;-74
2023/04/13 10:22:05;;;;;;;3.13;2.00;;;15.50;38.10;;;;;;20673;6781;117485;-74
2023/04/13 10:24:40;;;;;;;2.17;1.70;;;15.00;38.70;;;;;;20758;6781;117386;-74
2023/04/13 10:27:19;;;;;;;3.30;1.43;;;14.50;39.50;;;;;;20772;6763;142826;-75
2023/04/13 10:29:55;;;;;;;2.00;1.40;;;14.10;40.40;;;;;;20573;6763;336048;-79
2023/04/13 10:32:30;;;;;;;3.63;1.70;;;14.00;39.70;;;;;;20684;6761;117867;-78
2023/04/13 10:35:10;;;;;;;3.42;2.00;;;13.80;40.60;;;;;;20559;6763;307634;-80
2023/04/13 10:37:46;;;;;;;4.45;2.67;;;13.70;40.70;;;;;;20540;6763;277393;-77
2023/04/13 10:40:26;;;;;;;3.27;2.33;;;13.90;40.90;;;;;;20590;6763;290429;-77
2023/04/13 10:42:56;;;;;;;4.00;2.37;;;14.10;39.90;;;;;;20448;6763;312629;-78
2023/04/13 10:45:35;;;;;;;3.87;2.30;;;14.30;39.70;;;;;;20568;6748;277417;-78
2023/04/13 10:48:07;;;;;;;3.70;2.20;;;14.60;40.30;;;;;;20630;6748;281156;-78
2023/04/13 10:50:43;;;;;;;3.75;1.98;;;14.90;39.00;;;;;;20590;6763;336633;-78
2023/04/13 10:53:21;;;;;;;2.30;1.50;;;15.10;39.30;;;;;;20401;6763;314371;-78
2023/04/13 10:55:55;;;;;;;3.33;1.67;;;15.30;38.30;;;;;;20858;6748;117024;-75
2023/04/13 10:58:33;;;;;;;2.50;2.00;;;15.10;39.10;;;;;;20863;6748;118015;-75
2023/04/13 11:01:08;;;;;;;3.10;1.60;;;14.80;39.90;;;;;;20834;6748;117208;-75
2023/04/13 11:03:43;;;;;;;1.90;1.23;;;14.40;40.40;;;;;;20803;6763;117224;-76
2023/04/13 11:06:19;;;;;;;3.43;1.67;;;14.10;40.80;;;;;;20803;6763;117660;-75
2023/04/13 11:09:03;;;;;;;3.30;1.43;;;14.00;41.50;;;;;;20790;6768;117092;-75
2023/04/13 11:11:36;;;;;;;2.30;1.80;;;13.90;41.80;;;;;;20727;6768;117628;-76
2023/04/13 11:14:16;;;;;;;2.17;1.60;;;13.90;41.80;;;;;;20860;6749;123471;-75
2023/04/13 11:16:48;;;;;;;3.93;2.73;;;14.00;42.30;;;;;;20851;6749;116887;-76
2023/04/13 11:19:23;;;;;;;2.75;1.75;;;14.10;42.50;;;;;;20615;6749;336341;-76
2023/04/13 11:22:00;;;;;;;3.27;2.30;;;14.40;39.30;;;;;;20776;6749;119323;-75
2023/04/13 11:24:34;;;;;;;3.33;2.17;;;14.60;40.20;;;;;;20553;6778;281993;-75
2023/04/13 11:27:21;;;;;;;6.50;2.30;;;14.80;38.60;;;;;;20468;6793;283516;-77
2023/04/13 11:29:55;;;;;;;3.10;1.37;;;15.20;36.20;;;;;;20794;6763;117030;-76
2023/04/13 11:32:35;;;;;;;3.27;1.87;;;15.10;39.00;;;;;;20705;6767;119768;-76
2023/04/13 11:35:10;;;;;;;3.30;1.50;;;15.10;38.50;;;;;;20610;6752;277095;-76
2023/04/13 11:37:47;;;;;;;4.80;1.77;;;15.20;35.60;;;;;;20734;6784;117621;-75
2023/04/13 11:40:21;;;;;;;2.90;1.85;;;15.30;37.30;;;;;;20571;6771;335797;-75
2023/04/13 11:42:57;;;;;;;4.57;1.90;;;15.50;35.50;;;;;;20590;6804;117694;-75
2023/04/13 11:45:33;;;;;;;3.53;1.80;;;15.60;37.10;;;;;;20775;6769;117591;-75
2023/04/13 11:48:09;;;;;;;5.37;2.60;;;15.70;35.60;;;;;;20555;6769;337682;-77
2023/04/13 11:50:48;;;;;;;3.17;1.67;;;15.60;35.30;;;;;;20745;6776;118227;-76
2023/04/13 11:53:20;;;;;;;3.33;2.00;;;15.80;36.70;;;;;;20562;6840;118048;-76
2023/04/13 11:55:55;;;;;;;2.43;1.63;;;15.70;37.80;;;;;;20769;6777;118657;-76
2023/04/13 11:58:31;;;;;;;2.53;2.27;;;15.60;38.30;;;;;;20767;6770;123779;-76
2023/04/13 12:01:08;;;;;;;3.92;2.12;;;15.80;35.40;;;;;;20491;6778;278372;-75
2023/04/13 12:03:43;;;;;;;3.20;1.73;;;15.70;35.30;;;;;;20688;6798;117205;-75
2023/04/13 12:06:18;;;;;;;5.20;2.00;;;15.80;36.60;;;;;;20525;6783;312640;-75
2023/04/13 12:08:57;;;;;;;4.43;2.17;;;16.00;35.10;;;;;;20479;6798;280922;-75
2023/04/13 12:11:39;;;;;;;4.30;1.93;;;16.20;33.80;;;;;;20433;6796;309137;-75
2023/04/13 12:14:17;;;;;;;5.22;2.35;;;16.40;33.10;;;;;;20550;6783;320074;-75
2023/04/13 12:16:54;;;;;;;4.60;2.07;;;16.50;33.70;;;;;;20543;6777;306010;-75
2023/04/13 12:19:29;;;;;;;3.27;2.13;;;16.50;33.00;;;;;;20478;6798;308262;-75
2023/04/13 12:22:06;;;;;;;4.43;1.43;;;16.50;32.60;;;;;;20677;6783;117481;-75
2023/04/13 12:24:42;;;;;;;3.60;1.83;;;16.10;34.10;;;;;;20552;6778;305733;-75
2023/04/13 12:27:18;;;;;;;3.67;1.63;;;15.80;33.20;;;;;;20738;6798;118104;-72
2023/04/13 12:29:53;;;;;;;3.53;1.90;;;15.50;35.40;;;;;;20553;6776;345160;-73
2023/04/13 12:32:29;;;;;;;4.93;1.90;;;15.30;39.80;;;;;;20459;6778;309523;-72
2023/04/13 12:35:04;;;;;;;1.53;1.30;;;15.30;41.00;;;;;;20750;6780;117116;-72
2023/04/13 12:37:40;;;;;;;3.63;1.70;;;15.00;41.60;;;;;;20524;6781;307266;-73
2023/04/13 12:40:19;;;;;;;3.47;1.90;;;14.80;41.10;;;;;;20529;6783;311182;-73
2023/04/13 12:42:51;;;;;;;3.27;1.50;;;14.90;42.70;;;;;;20623;6779;118427;-73
2023/04/13 12:45:29;;;;;;;3.67;1.60;;;14.70;42.90;;;;;;20796;6763;123015;-74
2023/04/13 12:48:02;;;;;;;3.55;1.70;;;14.40;43.50;;;;;;20636;6754;294386;-74
2023/04/13 12:50:42;;;;;;;2.30;1.23;;;14.30;43.70;;;;;;20813;6754;117413;-74
2023/04/13 12:53:15;;;;;;;1.65;1.27;;;14.00;44.00;;;;;;20373;6768;339684;-73
2023/04/13 12:55:51;;;;;;;1.67;1.20;;;14.00;45.70;;;;;;20813;6769;121845;-73
2023/04/13 12:58:28;;;;;;;1.67;1.17;;;14.00;46.00;;;;;;20784;6765;117756;-77
2023/04/13 13:01:05;;;;;;;1.77;1.10;;;13.70;46.40;;;;;;20530;6793;308923;-75
2023/04/13 13:03:44;;;;;;;1.57;0.90;;;13.90;46.30;;;;;;20705;6788;117341;-76
2023/04/13 13:06:18;;;;;;;1.47;1.17;;;13.90;46.40;;;;;;20513;6788;284846;-74
2023/04/13 13:08:54;;;;;;;3.30;1.43;;;14.10;45.50;;;;;;20793;6768;117968;-72
2023/04/13 13:11:29;;;;;;;3.17;1.50;;;14.10;45.80;;;;;;20440;6792;296206;-73
2023/04/13 13:14:05;;;;;;;2.63;1.53;;;14.20;44.50;;;;;;20533;6776;296785;-74
2023/04/13 13:16:41;;;;;;;2.83;1.50;;;14.40;45.20;;;;;;20577;6767;278121;-76
2023/04/13 13:19:21;;;;;;;1.70;1.40;;;14.80;44.30;;;;;;20566;6768;278450;-74
2023/04/13 13:21:53;;;;;;;4.57;1.07;;;14.80;44.30;;;;;;20523;6766;278934;-74
2023/04/13 13:24:32;;;;;;;1.95;1.10;;;14.90;45.00;;;;;;20521;6777;337412;-75
2023/04/13 13:27:05;;;;;;;2.93;1.20;;;14.90;45.00;;;;;;20567;6770;307621;-74